Terminal Aerodrome Forecast
Issued by NWS

Home | Current Version | Previous Version | Text Only | Print | Product List | Glossary On
Versions: 1 2 3 4 5 6 7 8 9 10 11 12 13 14 15 16 17
798
FTUS45 KABQ 231737
TAFAEG
TAF
KAEG 231737Z 2318/2418 18012KT P6SM FEW050
     FM232000 21018G28KT P6SM SCT060
     FM240100 23016KT P6SM BKN050
      TEMPO 2405/2409 3SM -SN OVC019
     FM240900 25014KT P6SM OVC025
     FM241300 24013KT P6SM OVC035
     FM241600 24016G24KT P6SM VCSH BKN040=

USA.gov is the U.S. government's official web portal to all federal, state and local government web resources and services.